sensor_id;sensor_type;location;lat;lon;timestamp;pressure;altitude;pressure_sealevel;temperature;humidity
38718;BME280;24468;52.128;9.278;2023-07-16T00:01:54;99978.44;;;24.28;100.00
38718;BME280;24468;52.128;9.278;2023-07-16T00:04:20;99960.19;;;24.19;100.00
38718;BME280;24468;52.128;9.278;2023-07-16T00:06:46;99960.03;;;24.45;100.00
38718;BME280;24468;52.128;9.278;2023-07-16T00:09:11;99963.84;;;24.44;100.00
38718;BME280;24468;52.128;9.278;2023-07-16T00:11:37;99964.78;;;24.02;100.00
38718;BME280;24468;52.128;9.278;2023-07-16T00:14:03;99965.81;;;23.93;100.00
38718;BME280;24468;52.128;9.278;2023-07-16T00:16:28;99949.44;;;23.83;100.00
38718;BME280;24468;52.128;9.278;2023-07-16T00:18:54;99913.34;;;24.27;100.00
38718;BME280;24468;52.128;9.278;2023-07-16T00:21:19;99937.78;;;24.14;100.00
38718;BME280;24468;52.128;9.278;2023-07-16T00:23:45;99985.09;;;23.93;100.00
38718;BME280;24468;52.128;9.278;2023-07-16T00:26:12;100009.38;;;23.89;100.00
38718;BME280;24468;52.128;9.278;2023-07-16T00:28:38;100014.69;;;24.58;100.00
38718;BME280;24468;52.128;9.278;2023-07-16T00:31:03;100017.41;;;24.33;100.00
38718;BME280;24468;52.128;9.278;2023-07-16T00:33:29;100008.94;;;24.43;100.00
38718;BME280;24468;52.128;9.278;2023-07-16T00:35:55;100008.38;;;24.07;100.00
38718;BME280;24468;52.128;9.278;2023-07-16T00:38:20;100012.22;;;23.71;100.00
38718;BME280;24468;52.128;9.278;2023-07-16T00:40:46;100008.22;;;24.16;100.00
38718;BME280;24468;52.128;9.278;2023-07-16T00:43:12;99997.88;;;24.10;100.00
38718;BME280;24468;52.128;9.278;2023-07-16T00:45:40;99978.84;;;23.40;100.00
38718;BME280;24468;52.128;9.278;2023-07-16T00:48:07;100007.84;;;23.26;100.00
38718;BME280;24468;52.128;9.278;2023-07-16T00:50:34;100018.00;;;23.26;100.00
38718;BME280;24468;52.128;9.278;2023-07-16T00:53:08;100020.97;;;23.67;100.00
38718;BME280;24468;52.128;9.278;2023-07-16T00:55:36;100052.16;;;24.18;100.00
38718;BME280;24468;52.128;9.278;2023-07-16T00:58:05;100047.34;;;23.78;100.00
38718;BME280;24468;52.128;9.278;2023-07-16T01:00:36;100033.47;;;23.87;100.00
38718;BME280;24468;52.128;9.278;2023-07-16T01:03:04;100044.09;;;23.22;100.00
38718;BME280;24468;52.128;9.278;2023-07-16T01:08:16;100024.53;;;23.59;100.00
38718;BME280;24468;52.128;9.278;2023-07-16T01:10:45;100017.94;;;23.78;100.00
38718;BME280;24468;52.128;9.278;2023-07-16T01:13:11;100039.69;;;23.98;100.00
38718;BME280;24468;52.128;9.278;2023-07-16T01:15:37;100063.75;;;23.87;100.00
38718;BME280;24468;52.128;9.278;2023-07-16T01:18:04;100053.47;;;23.98;100.00
38718;BME280;24468;52.128;9.278;2023-07-16T01:20:30;100056.41;;;24.04;100.00
38718;BME280;24468;52.128;9.278;2023-07-16T01:31:50;100038.91;;;23.19;100.00
38718;BME280;24468;52.128;9.278;2023-07-16T01:34:17;100056.78;;;22.79;100.00
38718;BME280;24468;52.128;9.278;2023-07-16T01:36:44;100051.22;;;23.33;100.00
38718;BME280;24468;52.128;9.278;2023-07-16T01:39:10;100042.09;;;23.32;100.00
38718;BME280;24468;52.128;9.278;2023-07-16T01:41:35;100047.38;;;22.99;100.00
38718;BME280;24468;52.128;9.278;2023-07-16T01:44:01;100055.31;;;22.67;100.00
38718;BME280;24468;52.128;9.278;2023-07-16T01:46:27;100043.94;;;23.23;100.00
38718;BME280;24468;52.128;9.278;2023-07-16T01:48:52;100041.28;;;22.52;100.00
38718;BME280;24468;52.128;9.278;2023-07-16T01:51:18;100035.03;;;22.85;100.00
38718;BME280;24468;52.128;9.278;2023-07-16T01:53:45;100047.13;;;23.11;100.00
38718;BME280;24468;52.128;9.278;2023-07-16T01:56:10;100060.47;;;23.58;100.00
38718;BME280;24468;52.128;9.278;2023-07-16T01:58:36;100047.03;;;23.81;100.00
38718;BME280;24468;52.128;9.278;2023-07-16T02:01:01;100043.00;;;23.67;100.00
38718;BME280;24468;52.128;9.278;2023-07-16T02:03:27;100046.25;;;23.36;100.00
38718;BME280;24468;52.128;9.278;2023-07-16T02:05:52;100058.25;;;23.87;100.00
38718;BME280;24468;52.128;9.278;2023-07-16T02:08:18;100067.59;;;23.94;100.00
38718;BME280;24468;52.128;9.278;2023-07-16T02:10:44;100067.91;;;23.91;100.00
38718;BME280;24468;52.128;9.278;2023-07-16T02:13:10;100065.28;;;23.82;100.00
38718;BME280;24468;52.128;9.278;2023-07-16T02:15:35;100045.28;;;23.80;100.00
38718;BME280;24468;52.128;9.278;2023-07-16T02:18:01;100060.09;;;23.00;100.00
38718;BME280;24468;52.128;9.278;2023-07-16T02:20:26;100056.28;;;23.19;100.00
38718;BME280;24468;52.128;9.278;2023-07-16T02:22:52;100055.31;;;23.02;100.00
38718;BME280;24468;52.128;9.278;2023-07-16T02:25:17;100050.25;;;23.16;100.00
38718;BME280;24468;52.128;9.278;2023-07-16T02:27:43;100043.38;;;23.46;100.00
38718;BME280;24468;52.128;9.278;2023-07-16T02:30:09;100055.97;;;23.22;100.00
38718;BME280;24468;52.128;9.278;2023-07-16T02:32:34;100061.47;;;23.22;100.00
38718;BME280;24468;52.128;9.278;2023-07-16T02:35:01;100066.22;;;22.94;100.00
38718;BME280;24468;52.128;9.278;2023-07-16T02:37:27;100067.03;;;23.04;100.00
38718;BME280;24468;52.128;9.278;2023-07-16T02:39:52;100073.00;;;23.00;100.00
38718;BME280;24468;52.128;9.278;2023-07-16T02:42:18;100072.47;;;23.22;100.00
38718;BME280;24468;52.128;9.278;2023-07-16T02:44:43;100084.38;;;22.87;100.00
38718;BME280;24468;52.128;9.278;2023-07-16T02:47:11;100090.75;;;23.05;100.00
38718;BME280;24468;52.128;9.278;2023-07-16T02:49:37;100089.50;;;22.82;100.00
38718;BME280;24468;52.128;9.278;2023-07-16T02:52:03;100088.88;;;23.06;100.00
38718;BME280;24468;52.128;9.278;2023-07-16T02:54:29;100091.94;;;23.03;100.00
38718;BME280;24468;52.128;9.278;2023-07-16T02:56:54;100104.50;;;23.05;100.00
38718;BME280;24468;52.128;9.278;2023-07-16T02:59:20;100100.09;;;22.59;100.00
38718;BME280;24468;52.128;9.278;2023-07-16T03:01:45;100100.28;;;22.57;100.00
38718;BME280;24468;52.128;9.278;2023-07-16T03:04:11;100097.97;;;22.71;100.00
38718;BME280;24468;52.128;9.278;2023-07-16T03:06:37;100108.34;;;22.95;100.00
38718;BME280;24468;52.128;9.278;2023-07-16T03:09:03;100108.06;;;22.98;100.00
38718;BME280;24468;52.128;9.278;2023-07-16T03:11:29;100111.66;;;22.80;100.00
38718;BME280;24468;52.128;9.278;2023-07-16T03:13:54;100116.91;;;22.38;100.00
38718;BME280;24468;52.128;9.278;2023-07-16T03:16:20;100123.59;;;22.71;100.00
38718;BME280;24468;52.128;9.278;2023-07-16T03:18:45;100118.13;;;22.71;100.00
38718;BME280;24468;52.128;9.278;2023-07-16T03:21:12;100136.38;;;22.62;100.00
38718;BME280;24468;52.128;9.278;2023-07-16T03:23:38;100127.91;;;22.38;100.00
38718;BME280;24468;52.128;9.278;2023-07-16T03:26:03;100142.00;;;22.25;100.00
38718;BME280;24468;52.128;9.278;2023-07-16T03:28:29;100135.78;;;22.23;100.00
38718;BME280;24468;52.128;9.278;2023-07-16T03:30:55;100150.84;;;22.19;100.00
38718;BME280;24468;52.128;9.278;2023-07-16T03:33:20;100149.69;;;22.12;100.00
38718;BME280;24468;52.128;9.278;2023-07-16T03:35:48;100154.88;;;22.25;100.00
38718;BME280;24468;52.128;9.278;2023-07-16T03:38:14;100145.94;;;22.40;100.00
38718;BME280;24468;52.128;9.278;2023-07-16T03:40:42;100149.94;;;22.28;100.00
38718;BME280;24468;52.128;9.278;2023-07-16T03:43:08;100160.81;;;22.10;100.00
38718;BME280;24468;52.128;9.278;2023-07-16T03:45:34;100163.03;;;22.62;100.00
38718;BME280;24468;52.128;9.278;2023-07-16T03:47:59;100151.59;;;22.39;100.00
38718;BME280;24468;52.128;9.278;2023-07-16T03:50:25;100162.03;;;22.63;100.00
38718;BME280;24468;52.128;9.278;2023-07-16T03:52:50;100163.69;;;22.18;100.00
38718;BME280;24468;52.128;9.278;2023-07-16T03:55:16;100163.41;;;22.49;100.00
38718;BME280;24468;52.128;9.278;2023-07-16T03:57:42;100173.88;;;22.63;100.00
38718;BME280;24468;52.128;9.278;2023-07-16T04:00:08;100174.34;;;22.31;100.00
38718;BME280;24468;52.128;9.278;2023-07-16T04:02:35;100181.41;;;22.61;100.00
38718;BME280;24468;52.128;9.278;2023-07-16T04:05:02;100178.47;;;22.45;100.00
38718;BME280;24468;52.128;9.278;2023-07-16T04:07:28;100183.31;;;22.79;100.00
38718;BME280;24468;52.128;9.278;2023-07-16T04:09:53;100178.97;;;22.58;100.00
38718;BME280;24468;52.128;9.278;2023-07-16T04:12:19;100178.44;;;22.55;100.00
38718;BME280;24468;52.128;9.278;2023-07-16T04:14:45;100191.53;;;22.61;100.00
38718;BME280;24468;52.128;9.278;2023-07-16T04:17:11;100188.38;;;22.38;100.00
38718;BME280;24468;52.128;9.278;2023-07-16T04:19:37;100193.97;;;22.46;100.00
38718;BME280;24468;52.128;9.278;2023-07-16T04:22:03;100204.13;;;22.63;100.00
38718;BME280;24468;52.128;9.278;2023-07-16T04:24:29;100208.06;;;22.79;100.00
38718;BME280;24468;52.128;9.278;2023-07-16T04:26:55;100209.97;;;22.51;100.00
38718;BME280;24468;52.128;9.278;2023-07-16T04:29:21;100208.38;;;22.76;100.00
38718;BME280;24468;52.128;9.278;2023-07-16T04:31:46;100217.22;;;22.97;100.00
38718;BME280;24468;52.128;9.278;2023-07-16T04:34:12;100219.81;;;22.53;100.00
38718;BME280;24468;52.128;9.278;2023-07-16T04:36:38;100211.66;;;22.61;100.00
38718;BME280;24468;52.128;9.278;2023-07-16T04:39:04;100224.75;;;22.95;100.00
38718;BME280;24468;52.128;9.278;2023-07-16T04:41:30;100229.34;;;23.04;100.00
38718;BME280;24468;52.128;9.278;2023-07-16T04:43:56;100224.69;;;22.59;100.00
38718;BME280;24468;52.128;9.278;2023-07-16T04:46:21;100216.84;;;22.64;100.00
38718;BME280;24468;52.128;9.278;2023-07-16T04:48:47;100233.97;;;22.58;100.00
38718;BME280;24468;52.128;9.278;2023-07-16T04:51:12;100231.72;;;22.44;100.00
38718;BME280;24468;52.128;9.278;2023-07-16T04:53:38;100239.78;;;22.55;100.00
38718;BME280;24468;52.128;9.278;2023-07-16T04:56:03;100238.78;;;23.02;100.00
38718;BME280;24468;52.128;9.278;2023-07-16T04:58:30;100236.56;;;23.05;100.00
38718;BME280;24468;52.128;9.278;2023-07-16T05:00:55;100238.03;;;22.82;100.00
38718;BME280;24468;52.128;9.278;2023-07-16T05:03:21;100240.84;;;23.18;100.00
38718;BME280;24468;52.128;9.278;2023-07-16T05:05:50;100244.69;;;23.25;100.00
38718;BME280;24468;52.128;9.278;2023-07-16T05:08:15;100241.25;;;23.23;100.00
38718;BME280;24468;52.128;9.278;2023-07-16T05:10:41;100243.03;;;23.32;100.00
38718;BME280;24468;52.128;9.278;2023-07-16T05:13:06;100253.16;;;23.14;100.00
38718;BME280;24468;52.128;9.278;2023-07-16T05:15:32;100247.78;;;22.94;100.00
38718;BME280;24468;52.128;9.278;2023-07-16T05:17:58;100245.47;;;22.72;100.00
38718;BME280;24468;52.128;9.278;2023-07-16T05:20:23;100255.31;;;22.92;100.00
38718;BME280;24468;52.128;9.278;2023-07-16T05:22:50;100253.44;;;23.20;100.00
38718;BME280;24468;52.128;9.278;2023-07-16T05:25:16;100251.47;;;23.13;100.00
38718;BME280;24468;52.128;9.278;2023-07-16T05:27:41;100253.94;;;23.06;100.00
38718;BME280;24468;52.128;9.278;2023-07-16T05:30:08;100263.81;;;23.26;100.00
38718;BME280;24468;52.128;9.278;2023-07-16T05:32:33;100270.56;;;23.32;100.00
38718;BME280;24468;52.128;9.278;2023-07-16T05:34:59;100262.53;;;23.21;100.00
38718;BME280;24468;52.128;9.278;2023-07-16T05:37:25;100262.00;;;22.90;100.00
38718;BME280;24468;52.128;9.278;2023-07-16T05:39:51;100261.84;;;22.91;100.00
38718;BME280;24468;52.128;9.278;2023-07-16T05:42:16;100260.50;;;23.23;100.00
38718;BME280;24468;52.128;9.278;2023-07-16T05:44:42;100266.78;;;23.33;100.00
38718;BME280;24468;52.128;9.278;2023-07-16T05:47:09;100269.28;;;23.62;100.00
38718;BME280;24468;52.128;9.278;2023-07-16T05:49:35;100275.13;;;23.23;100.00
38718;BME280;24468;52.128;9.278;2023-07-16T05:52:00;100270.09;;;23.19;100.00
38718;BME280;24468;52.128;9.278;2023-07-16T05:54:26;100279.88;;;23.03;100.00
38718;BME280;24468;52.128;9.278;2023-07-16T05:56:51;100272.56;;;22.67;100.00
38718;BME280;24468;52.128;9.278;2023-07-16T05:59:17;100263.56;;;23.02;100.00
38718;BME280;24468;52.128;9.278;2023-07-16T06:01:43;100276.06;;;23.32;100.00
38718;BME280;24468;52.128;9.278;2023-07-16T06:04:08;100285.25;;;22.95;100.00
38718;BME280;24468;52.128;9.278;2023-07-16T06:06:34;100279.44;;;23.44;100.00
38718;BME280;24468;52.128;9.278;2023-07-16T06:08:59;100282.66;;;23.57;100.00
38718;BME280;24468;52.128;9.278;2023-07-16T06:11:25;100274.56;;;23.20;100.00
38718;BME280;24468;52.128;9.278;2023-07-16T06:13:53;100285.19;;;23.50;100.00
38718;BME280;24468;52.128;9.278;2023-07-16T06:16:19;100281.41;;;23.51;100.00
38718;BME280;24468;52.128;9.278;2023-07-16T06:18:44;100292.28;;;23.35;100.00
38718;BME280;24468;52.128;9.278;2023-07-16T06:21:10;100295.25;;;23.78;100.00
38718;BME280;24468;52.128;9.278;2023-07-16T06:23:35;100283.75;;;22.83;100.00
38718;BME280;24468;52.128;9.278;2023-07-16T06:26:01;100307.88;;;22.99;100.00
38718;BME280;24468;52.128;9.278;2023-07-16T06:28:26;100283.16;;;22.61;100.00
38718;BME280;24468;52.128;9.278;2023-07-16T06:30:52;100303.41;;;22.60;100.00
38718;BME280;24468;52.128;9.278;2023-07-16T06:33:18;100304.69;;;22.66;100.00
38718;BME280;24468;52.128;9.278;2023-07-16T06:35:47;100312.13;;;22.83;99.98
38718;BME280;24468;52.128;9.278;2023-07-16T06:38:14;100323.13;;;22.83;97.76
38718;BME280;24468;52.128;9.278;2023-07-16T06:40:45;100333.63;;;23.25;95.81
38718;BME280;24468;52.128;9.278;2023-07-16T06:43:11;100331.75;;;23.26;95.29
38718;BME280;24468;52.128;9.278;2023-07-16T06:45:36;100322.06;;;22.94;94.22
38718;BME280;24468;52.128;9.278;2023-07-16T06:48:02;100329.13;;;22.69;88.80
38718;BME280;24468;52.128;9.278;2023-07-16T06:50:28;100336.34;;;23.07;86.93
38718;BME280;24468;52.128;9.278;2023-07-16T06:52:53;100331.63;;;23.00;83.10
38718;BME280;24468;52.128;9.278;2023-07-16T06:55:19;100349.56;;;22.94;79.37
38718;BME280;24468;52.128;9.278;2023-07-16T06:57:44;100330.19;;;22.58;81.25
38718;BME280;24468;52.128;9.278;2023-07-16T07:00:10;100365.41;;;22.82;80.47
38718;BME280;24468;52.128;9.278;2023-07-16T07:02:36;100344.50;;;22.90;80.54
38718;BME280;24468;52.128;9.278;2023-07-16T07:05:02;100351.72;;;23.00;80.50
38718;BME280;24468;52.128;9.278;2023-07-16T07:07:28;100353.06;;;22.96;77.33
38718;BME280;24468;52.128;9.278;2023-07-16T07:09:54;100367.56;;;22.79;77.38
38718;BME280;24468;52.128;9.278;2023-07-16T07:12:19;100352.31;;;22.67;77.08
38718;BME280;24468;52.128;9.278;2023-07-16T07:14:47;100382.63;;;22.47;74.76
38718;BME280;24468;52.128;9.278;2023-07-16T07:17:13;100349.69;;;22.65;75.65
38718;BME280;24468;52.128;9.278;2023-07-16T07:19:39;100357.88;;;22.84;73.38
38718;BME280;24468;52.128;9.278;2023-07-16T07:22:04;100369.38;;;23.07;73.74
38718;BME280;24468;52.128;9.278;2023-07-16T07:24:30;100366.00;;;23.14;74.21
38718;BME280;24468;52.128;9.278;2023-07-16T07:26:55;100362.69;;;22.73;73.26
38718;BME280;24468;52.128;9.278;2023-07-16T07:29:21;100382.56;;;22.57;71.10
38718;BME280;24468;52.128;9.278;2023-07-16T07:31:46;100369.53;;;22.69;71.21
38718;BME280;24468;52.128;9.278;2023-07-16T07:34:12;100363.59;;;22.63;72.10
38718;BME280;24468;52.128;9.278;2023-07-16T07:36:37;100367.00;;;22.85;69.81
38718;BME280;24468;52.128;9.278;2023-07-16T07:39:03;100364.56;;;22.82;70.03
38718;BME280;24468;52.128;9.278;2023-07-16T07:41:28;100360.28;;;22.97;69.15
38718;BME280;24468;52.128;9.278;2023-07-16T07:43:54;100369.81;;;23.03;68.25
38718;BME280;24468;52.128;9.278;2023-07-16T07:46:19;100342.47;;;22.92;66.72
38718;BME280;24468;52.128;9.278;2023-07-16T07:48:45;100362.91;;;22.89;66.52
38718;BME280;24468;52.128;9.278;2023-07-16T07:51:10;100369.75;;;22.85;67.91
38718;BME280;24468;52.128;9.278;2023-07-16T07:53:36;100379.09;;;22.92;66.65
38718;BME280;24468;52.128;9.278;2023-07-16T07:56:01;100361.00;;;22.99;66.78
38718;BME280;24468;52.128;9.278;2023-07-16T07:58:27;100368.84;;;23.22;66.21
38718;BME280;24468;52.128;9.278;2023-07-16T08:00:52;100360.72;;;23.66;64.83
38718;BME280;24468;52.128;9.278;2023-07-16T08:03:18;100380.50;;;23.79;64.73
38718;BME280;24468;52.128;9.278;2023-07-16T08:05:43;100363.31;;;23.67;63.63
38718;BME280;24468;52.128;9.278;2023-07-16T08:08:09;100378.72;;;23.42;63.03
38718;BME280;24468;52.128;9.278;2023-07-16T08:10:34;100367.19;;;23.57;62.86
38718;BME280;24468;52.128;9.278;2023-07-16T08:13:00;100377.25;;;23.66;61.57
38718;BME280;24468;52.128;9.278;2023-07-16T08:15:25;100377.69;;;23.61;62.24
38718;BME280;24468;52.128;9.278;2023-07-16T08:17:51;100377.66;;;23.71;61.50
38718;BME280;24468;52.128;9.278;2023-07-16T08:20:17;100364.09;;;23.60;60.72
38718;BME280;24468;52.128;9.278;2023-07-16T08:22:42;100369.97;;;23.29;62.03
38718;BME280;24468;52.128;9.278;2023-07-16T08:25:08;100384.88;;;23.54;62.74
38718;BME280;24468;52.128;9.278;2023-07-16T08:27:34;100369.88;;;23.84;62.47
38718;BME280;24468;52.128;9.278;2023-07-16T08:29:59;100372.38;;;23.60;63.25
38718;BME280;24468;52.128;9.278;2023-07-16T08:32:25;100372.38;;;23.60;64.01
38718;BME280;24468;52.128;9.278;2023-07-16T08:34:50;100370.94;;;23.56;62.61
38718;BME280;24468;52.128;9.278;2023-07-16T08:37:16;100369.94;;;23.74;63.48
38718;BME280;24468;52.128;9.278;2023-07-16T08:39:41;100376.63;;;24.08;63.01
38718;BME280;24468;52.128;9.278;2023-07-16T08:42:09;100372.31;;;24.05;62.42
38718;BME280;24468;52.128;9.278;2023-07-16T08:44:37;100372.31;;;24.31;61.87
38718;BME280;24468;52.128;9.278;2023-07-16T08:47:08;100382.69;;;24.11;61.43
38718;BME280;24468;52.128;9.278;2023-07-16T08:49:34;100387.31;;;24.29;61.88
38718;BME280;24468;52.128;9.278;2023-07-16T08:52:03;100373.13;;;24.24;61.88
38718;BME280;24468;52.128;9.278;2023-07-16T08:54:30;100370.34;;;24.41;60.21
38718;BME280;24468;52.128;9.278;2023-07-16T08:56:56;100362.59;;;24.19;59.45
38718;BME280;24468;52.128;9.278;2023-07-16T08:59:22;100369.00;;;24.46;58.01
38718;BME280;24468;52.128;9.278;2023-07-16T09:01:48;100373.16;;;23.70;60.23
38718;BME280;24468;52.128;9.278;2023-07-16T09:04:15;100367.72;;;23.60;60.61
38718;BME280;24468;52.128;9.278;2023-07-16T09:06:42;100364.41;;;23.57;59.39
38718;BME280;24468;52.128;9.278;2023-07-16T09:09:08;100376.88;;;23.96;59.43
38718;BME280;24468;52.128;9.278;2023-07-16T09:11:34;100374.69;;;24.00;56.83
38718;BME280;24468;52.128;9.278;2023-07-16T09:14:02;100389.53;;;23.53;59.27
38718;BME280;24468;52.128;9.278;2023-07-16T09:16:33;100388.09;;;23.49;58.85
38718;BME280;24468;52.128;9.278;2023-07-16T09:19:09;100380.41;;;23.53;55.94
38718;BME280;24468;52.128;9.278;2023-07-16T09:21:36;100375.81;;;24.15;53.70
38718;BME280;24468;52.128;9.278;2023-07-16T09:24:07;100380.44;;;23.71;54.43
38718;BME280;24468;52.128;9.278;2023-07-16T09:26:36;100397.19;;;24.13;56.24
38718;BME280;24468;52.128;9.278;2023-07-16T09:29:06;100393.09;;;23.36;57.06
38718;BME280;24468;52.128;9.278;2023-07-16T09:31:32;100388.94;;;23.32;57.56
38718;BME280;24468;52.128;9.278;2023-07-16T09:33:58;100402.34;;;22.80;59.66
38718;BME280;24468;52.128;9.278;2023-07-16T09:36:27;100390.97;;;22.93;59.59
38718;BME280;24468;52.128;9.278;2023-07-16T09:38:57;100405.47;;;24.13;57.57
38718;BME280;24468;52.128;9.278;2023-07-16T09:41:23;100402.91;;;24.20;57.00
38718;BME280;24468;52.128;9.278;2023-07-16T09:43:49;100402.59;;;24.23;58.81
38718;BME280;24468;52.128;9.278;2023-07-16T09:46:15;100402.69;;;23.95;57.03
38718;BME280;24468;52.128;9.278;2023-07-16T09:48:41;100404.84;;;24.46;56.53
38718;BME280;24468;52.128;9.278;2023-07-16T09:51:07;100384.78;;;24.35;55.72
38718;BME280;24468;52.128;9.278;2023-07-16T09:53:40;100400.47;;;23.99;55.43
38718;BME280;24468;52.128;9.278;2023-07-16T09:56:09;100419.22;;;23.78;54.96
38718;BME280;24468;52.128;9.278;2023-07-16T09:58:35;100391.84;;;23.76;55.16
38718;BME280;24468;52.128;9.278;2023-07-16T10:01:02;100412.47;;;23.44;56.13
38718;BME280;24468;52.128;9.278;2023-07-16T10:03:29;100406.19;;;23.52;57.99
38718;BME280;24468;52.128;9.278;2023-07-16T10:06:06;100415.47;;;23.51;58.11
38718;BME280;24468;52.128;9.278;2023-07-16T10:08:34;100415.28;;;23.80;58.38
38718;BME280;24468;52.128;9.278;2023-07-16T10:11:00;100415.94;;;23.19;57.02
38718;BME280;24468;52.128;9.278;2023-07-16T10:13:26;100421.63;;;23.63;57.20
38718;BME280;24468;52.128;9.278;2023-07-16T10:15:56;100423.44;;;23.26;54.33
38718;BME280;24468;52.128;9.278;2023-07-16T10:18:30;100411.31;;;23.65;54.83
38718;BME280;24468;52.128;9.278;2023-07-16T10:21:04;100425.34;;;23.26;55.30
38718;BME280;24468;52.128;9.278;2023-07-16T10:23:43;100439.00;;;23.63;54.01
38718;BME280;24468;52.128;9.278;2023-07-16T10:26:14;100401.81;;;23.59;50.41
38718;BME280;24468;52.128;9.278;2023-07-16T10:28:40;100409.88;;;23.43;50.69
38718;BME280;24468;52.128;9.278;2023-07-16T10:31:06;100421.97;;;24.31;51.63
38718;BME280;24468;52.128;9.278;2023-07-16T10:33:42;100423.06;;;24.38;50.38
38718;BME280;24468;52.128;9.278;2023-07-16T10:36:07;100413.16;;;24.10;50.93
38718;BME280;24468;52.128;9.278;2023-07-16T10:38:41;100433.44;;;24.27;50.99
38718;BME280;24468;52.128;9.278;2023-07-16T10:41:09;100427.41;;;25.19;49.98
38718;BME280;24468;52.128;9.278;2023-07-16T10:43:35;100436.25;;;24.09;47.76
38718;BME280;24468;52.128;9.278;2023-07-16T10:46:02;100425.69;;;24.66;48.45
38718;BME280;24468;52.128;9.278;2023-07-16T10:48:28;100425.03;;;24.72;48.60
38718;BME280;24468;52.128;9.278;2023-07-16T10:50:54;100430.91;;;25.03;48.38
38718;BME280;24468;52.128;9.278;2023-07-16T10:53:20;100433.41;;;24.89;47.77
38718;BME280;24468;52.128;9.278;2023-07-16T10:55:45;100432.34;;;24.81;48.63
38718;BME280;24468;52.128;9.278;2023-07-16T10:58:11;100421.16;;;24.83;48.27
38718;BME280;24468;52.128;9.278;2023-07-16T11:00:39;100433.13;;;25.00;47.50
38718;BME280;24468;52.128;9.278;2023-07-16T11:03:04;100418.03;;;25.12;47.11
38718;BME280;24468;52.128;9.278;2023-07-16T11:05:30;100422.59;;;25.21;46.87
38718;BME280;24468;52.128;9.278;2023-07-16T11:07:55;100432.94;;;25.70;46.87
38718;BME280;24468;52.128;9.278;2023-07-16T11:10:23;100419.47;;;25.24;45.96
38718;BME280;24468;52.128;9.278;2023-07-16T11:12:53;100425.59;;;25.44;46.88
38718;BME280;24468;52.128;9.278;2023-07-16T11:15:29;100435.28;;;25.48;47.42
38718;BME280;24468;52.128;9.278;2023-07-16T11:17:55;100434.34;;;25.23;47.74
38718;BME280;24468;52.128;9.278;2023-07-16T11:20:20;100427.81;;;25.91;47.36
38718;BME280;24468;52.128;9.278;2023-07-16T11:22:46;100433.78;;;25.70;46.99
38718;BME280;24468;52.128;9.278;2023-07-16T11:25:13;100420.41;;;25.92;46.67
38718;BME280;24468;52.128;9.278;2023-07-16T11:27:41;100426.63;;;26.27;46.18
38718;BME280;24468;52.128;9.278;2023-07-16T11:30:07;100428.63;;;25.76;46.61
38718;BME280;24468;52.128;9.278;2023-07-16T11:32:42;100427.16;;;25.98;45.86
38718;BME280;24468;52.128;9.278;2023-07-16T11:35:16;100427.50;;;25.94;45.71
38718;BME280;24468;52.128;9.278;2023-07-16T11:37:42;100422.63;;;25.97;45.42
38718;BME280;24468;52.128;9.278;2023-07-16T11:40:10;100424.81;;;25.77;45.46
38718;BME280;24468;52.128;9.278;2023-07-16T11:42:38;100426.72;;;25.68;46.06
38718;BME280;24468;52.128;9.278;2023-07-16T11:45:15;100441.75;;;25.73;45.84
38718;BME280;24468;52.128;9.278;2023-07-16T11:47:41;100441.28;;;25.86;45.64
38718;BME280;24468;52.128;9.278;2023-07-16T11:50:07;100433.91;;;25.52;45.66
38718;BME280;24468;52.128;9.278;2023-07-16T11:52:33;100435.59;;;25.88;45.72
38718;BME280;24468;52.128;9.278;2023-07-16T11:54:59;100430.31;;;25.60;46.05
38718;BME280;24468;52.128;9.278;2023-07-16T11:57:30;100436.31;;;26.06;45.87
38718;BME280;24468;52.128;9.278;2023-07-16T11:59:56;100434.41;;;26.39;46.01
38718;BME280;24468;52.128;9.278;2023-07-16T12:02:22;100428.91;;;26.56;46.45
38718;BME280;24468;52.128;9.278;2023-07-16T12:04:48;100445.94;;;25.94;45.55
38718;BME280;24468;52.128;9.278;2023-07-16T12:07:14;100440.09;;;26.46;45.32
38718;BME280;24468;52.128;9.278;2023-07-16T12:09:40;100429.72;;;25.99;45.73
38718;BME280;24468;52.128;9.278;2023-07-16T12:12:06;100448.72;;;26.92;44.25
38718;BME280;24468;52.128;9.278;2023-07-16T12:14:32;100443.38;;;26.01;45.09
38718;BME280;24468;52.128;9.278;2023-07-16T12:16:57;100468.63;;;24.95;45.96
38718;BME280;24468;52.128;9.278;2023-07-16T12:19:24;100464.31;;;25.18;45.85
38718;BME280;24468;52.128;9.278;2023-07-16T12:21:50;100455.38;;;25.24;45.72
38718;BME280;24468;52.128;9.278;2023-07-16T12:24:16;100449.19;;;25.73;46.23
38718;BME280;24468;52.128;9.278;2023-07-16T12:26:42;100454.44;;;25.50;45.80
38718;BME280;24468;52.128;9.278;2023-07-16T12:29:08;100462.31;;;25.02;47.04
38718;BME280;24468;52.128;9.278;2023-07-16T12:31:33;100461.72;;;24.91;46.18
38718;BME280;24468;52.128;9.278;2023-07-16T12:34:00;100456.88;;;25.53;45.80
38718;BME280;24468;52.128;9.278;2023-07-16T12:36:30;100463.72;;;25.83;45.77
38718;BME280;24468;52.128;9.278;2023-07-16T12:38:56;100459.13;;;26.08;45.56
38718;BME280;24468;52.128;9.278;2023-07-16T12:41:21;100469.94;;;25.08;46.71
38718;BME280;24468;52.128;9.278;2023-07-16T12:43:47;100454.72;;;25.31;46.55
38718;BME280;24468;52.128;9.278;2023-07-16T12:46:13;100450.56;;;25.00;46.87
38718;BME280;24468;52.128;9.278;2023-07-16T12:48:38;100461.66;;;24.38;47.56
38718;BME280;24468;52.128;9.278;2023-07-16T12:51:04;100472.44;;;25.20;45.65
38718;BME280;24468;52.128;9.278;2023-07-16T12:53:29;100455.19;;;25.18;46.20